Time;durP1;ratioP1;P1;durP2;ratioP2;P2;SDS_P1;SDS_P2;PMS_P1;PMS_P2;Temp;Humidity;BMP_temperature;BMP_pressure;BME280_temperature;BME280_humidity;BME280_pressure;Samples;Min_cycle;Max_cycle;Signal;HPM_P1;HPM_P2
2021/12/29 00:00:23;;;;;;;8.00;1.77;;;;;;;12.13;89.24;99003.78;4991758;28;20026;-67
2021/12/29 00:02:49;;;;;;;7.18;1.42;;;;;;;12.13;88.07;99004.66;4999067;28;20144;-66
2021/12/29 00:05:15;;;;;;;8.02;1.30;;;;;;;12.19;88.70;99004.31;4991635;28;20500;-66
2021/12/29 00:07:40;;;;;;;12.10;3.05;;;;;;;12.14;88.63;99006.38;4994149;28;20117;-66
2021/12/29 00:10:08;;;;;;;6.38;2.13;;;;;;;12.14;88.59;99022.34;4992415;28;20044;-66
2021/12/29 00:12:40;;;;;;;5.88;1.10;;;;;;;12.19;88.63;99024.78;4997163;28;20068;-66
2021/12/29 00:15:06;;;;;;;3.67;1.15;;;;;;;12.15;88.88;99016.09;4991414;28;20049;-66
2021/12/29 00:17:32;;;;;;;10.15;2.53;;;;;;;12.22;87.95;99030.81;4992089;28;20014;-66
2021/12/29 00:19:57;;;;;;;9.02;1.77;;;;;;;12.20;88.42;99032.72;5009277;28;20466;-66
2021/12/29 00:22:22;;;;;;;8.88;2.40;;;;;;;12.20;88.74;99037.16;5005315;28;20401;-66
2021/12/29 00:24:48;;;;;;;4.97;1.63;;;;;;;12.21;89.05;99039.75;4991812;28;20037;-66
2021/12/29 00:27:13;;;;;;;4.95;2.15;;;;;;;12.23;88.96;99050.31;4993196;28;20490;-66
2021/12/29 00:29:39;;;;;;;4.88;1.40;;;;;;;12.18;88.65;99045.25;4991656;28;20077;-66
2021/12/29 00:32:05;;;;;;;5.45;1.33;;;;;;;12.10;89.38;99046.59;4991891;28;20037;-66
2021/12/29 00:34:30;;;;;;;5.60;1.25;;;;;;;12.10;90.01;99052.81;4994380;28;20034;-66
2021/12/29 00:36:55;;;;;;;6.78;1.25;;;;;;;12.18;89.68;99061.25;4991538;28;20029;-66
2021/12/29 00:39:21;;;;;;;3.20;1.23;;;;;;;12.23;89.90;99075.19;4990731;28;20038;-66
2021/12/29 00:41:46;;;;;;;6.63;1.27;;;;;;;12.25;89.30;99070.63;4993668;28;20021;-66
2021/12/29 00:44:12;;;;;;;2.38;0.90;;;;;;;12.20;89.79;99075.38;4991861;28;20030;-66
2021/12/29 00:46:38;;;;;;;8.90;1.58;;;;;;;12.22;90.34;99097.47;4991921;28;20027;-66
2021/12/29 00:49:05;;;;;;;5.10;1.00;;;;;;;12.31;89.89;99104.09;4993838;28;20085;-66
2021/12/29 00:51:31;;;;;;;8.15;1.48;;;;;;;12.16;89.86;99100.44;5002376;28;20124;-66
2021/12/29 00:53:57;;;;;;;3.70;1.35;;;;;;;12.23;89.67;99107.19;4993057;28;20509;-66
2021/12/29 00:56:22;;;;;;;6.80;1.90;;;;;;;12.30;89.40;99108.59;4999260;28;20041;-66
2021/12/29 00:58:47;;;;;;;6.53;1.45;;;;;;;12.31;89.35;99115.63;4991538;28;20076;-66
2021/12/29 01:01:13;;;;;;;3.83;1.27;;;;;;;12.17;90.01;99128.84;4992663;28;20057;-66
2021/12/29 01:03:39;;;;;;;5.13;1.30;;;;;;;12.15;90.17;99133.41;5006203;28;20026;-66
2021/12/29 01:06:05;;;;;;;2.15;1.00;;;;;;;12.19;90.61;99131.44;4992839;28;20104;-67
2021/12/29 01:08:31;;;;;;;3.60;0.90;;;;;;;12.12;91.67;99136.22;4991358;28;20030;-66
2021/12/29 01:10:56;;;;;;;2.28;0.85;;;;;;;12.07;92.81;99154.25;4994305;28;20093;-67
2021/12/29 01:13:30;;;;;;;4.43;1.23;;;;;;;11.98;94.47;99159.22;4990928;28;20069;-66
2021/12/29 01:15:59;;;;;;;4.05;1.30;;;;;;;11.87;96.38;99178.41;4991411;28;20474;-66
2021/12/29 01:18:28;;;;;;;1.77;0.82;;;;;;;11.85;97.28;99164.31;4991100;28;20104;-66
2021/12/29 01:20:54;;;;;;;8.18;1.20;;;;;;;11.87;97.23;99171.28;4993149;28;20042;-66
2021/12/29 01:23:20;;;;;;;6.43;1.20;;;;;;;11.78;96.83;99157.56;4989597;28;20081;-66
2021/12/29 01:25:46;;;;;;;4.30;0.90;;;;;;;11.78;96.47;99158.41;4992524;28;20363;-66
2021/12/29 01:28:11;;;;;;;4.75;1.20;;;;;;;11.88;97.20;99166.81;4990478;28;20037;-66
2021/12/29 01:30:37;;;;;;;8.13;1.65;;;;;;;11.90;97.23;99159.59;4990299;28;20038;-66
2021/12/29 01:33:06;;;;;;;4.35;1.05;;;;;;;11.85;96.92;99153.63;5002017;28;20036;-66
2021/12/29 01:35:32;;;;;;;5.43;1.60;;;;;;;11.88;96.83;99158.81;5010259;28;20032;-67
2021/12/29 01:37:59;;;;;;;10.82;1.30;;;;;;;11.71;95.21;99159.66;5003585;28;20117;-66
2021/12/29 01:40:26;;;;;;;5.70;1.30;;;;;;;11.83;96.04;99166.16;5004804;28;20033;-66
2021/12/29 01:42:51;;;;;;;3.33;0.85;;;;;;;11.89;94.86;99187.19;5009635;28;20477;-66
2021/12/29 01:45:17;;;;;;;8.23;1.52;;;;;;;11.96;93.52;99199.25;4996225;28;20033;-66
2021/12/29 01:47:42;;;;;;;6.00;1.00;;;;;;;11.99;93.21;99209.78;4989529;28;20030;-66
2021/12/29 01:50:10;;;;;;;6.18;1.67;;;;;;;11.96;93.53;99209.06;4992122;28;20030;-66
2021/12/29 01:52:39;;;;;;;7.32;1.00;;;;;;;11.98;94.22;99213.34;4990786;28;20022;-66
2021/12/29 01:55:08;;;;;;;2.20;1.00;;;;;;;11.96;93.32;99199.25;4990348;28;20026;-66
2021/12/29 01:57:35;;;;;;;5.55;1.30;;;;;;;11.99;94.05;99220.44;4991648;28;20034;-66
2021/12/29 02:00:01;;;;;;;7.30;1.55;;;;;;;12.01;93.23;99229.19;4988838;28;20030;-66
2021/12/29 02:02:26;;;;;;;2.00;0.80;;;;;;;11.99;93.78;99236.44;4992373;28;20089;-66
2021/12/29 02:04:52;;;;;;;4.20;1.23;;;;;;;12.05;93.48;99245.91;4989551;28;20050;-66
2021/12/29 02:07:17;;;;;;;3.17;1.00;;;;;;;12.03;93.70;99240.66;4989142;28;20022;-66
2021/12/29 02:09:43;;;;;;;1.40;0.95;;;;;;;11.78;94.92;99243.69;4993590;28;20025;-66
2021/12/29 02:12:09;;;;;;;2.50;1.13;;;;;;;11.63;97.65;99254.22;5005025;28;20038;-66
2021/12/29 02:14:34;;;;;;;2.50;0.90;;;;;;;11.89;97.17;99246.66;5010549;28;20466;-67
2021/12/29 02:17:00;;;;;;;3.53;1.10;;;;;;;11.96;97.71;99252.53;5007491;28;20386;-66
2021/12/29 02:19:26;;;;;;;2.53;0.80;;;;;;;11.69;99.74;99264.59;4990292;28;20030;-66
2021/12/29 02:22:14;;;;;;;5.80;1.10;;;;;;;11.79;100.00;99257.88;4989430;28;20030;-66
2021/12/29 02:24:42;;;;;;;1.80;0.80;;;;;;;11.76;100.00;99266.03;4992350;28;20041;-66
2021/12/29 02:27:11;;;;;;;5.90;1.20;;;;;;;11.76;100.00;99260.69;4988698;28;20031;-66
2021/12/29 02:29:37;;;;;;;4.60;1.17;;;;;;;11.76;100.00;99261.53;4992105;28;20038;-66
2021/12/29 02:32:03;;;;;;;4.05;1.50;;;;;;;11.76;100.00;99256.22;4995872;28;20026;-66
2021/12/29 02:34:29;;;;;;;5.03;1.50;;;;;;;11.81;100.00;99269.31;4988953;28;20430;-66
2021/12/29 02:36:57;;;;;;;3.58;1.20;;;;;;;11.54;100.00;99281.28;4990032;28;20026;-66
2021/12/29 02:39:24;;;;;;;5.93;0.90;;;;;;;11.62;100.00;99282.63;4992727;28;20018;-66
2021/12/29 02:41:52;;;;;;;4.40;1.02;;;;;;;11.22;100.00;99290.78;4989858;28;20082;-66
2021/12/29 02:44:25;;;;;;;7.82;1.48;;;;;;;11.61;100.00;99299.53;4991991;28;20117;-66
2021/12/29 02:46:51;;;;;;;3.05;1.10;;;;;;;11.69;100.00;99301.88;4987431;28;20037;-66
2021/12/29 02:49:17;;;;;;;4.28;1.85;;;;;;;11.67;100.00;99311.75;4988733;28;20492;-66
2021/12/29 02:51:43;;;;;;;4.82;1.40;;;;;;;11.64;100.00;99315.44;4990928;28;20042;-66
2021/12/29 02:54:09;;;;;;;10.43;2.20;;;;;;;11.68;100.00;99317.00;4988556;28;20022;-66
2021/12/29 02:56:35;;;;;;;3.95;1.33;;;;;;;11.65;100.00;99321.59;4995848;28;20088;-66
2021/12/29 02:59:00;;;;;;;6.13;1.27;;;;;;;11.62;100.00;99319.94;4993861;28;20038;-66
2021/12/29 03:01:27;;;;;;;9.20;1.70;;;;;;;11.62;100.00;99319.94;4989342;28;20026;-66
2021/12/29 03:03:54;;;;;;;5.53;1.23;;;;;;;11.61;100.00;99317.34;4996922;28;20053;-66
2021/12/29 03:06:20;;;;;;;3.33;1.50;;;;;;;11.55;100.00;99304.28;4988075;28;20049;-66
2021/12/29 03:08:45;;;;;;;5.05;1.30;;;;;;;11.57;100.00;99313.97;4994267;28;20479;-66
2021/12/29 03:11:11;;;;;;;4.82;1.27;;;;;;;11.57;100.00;99303.31;4991932;28;20046;-66
2021/12/29 03:13:39;;;;;;;3.67;1.25;;;;;;;11.54;100.00;99303.47;4994489;28;20034;-66
2021/12/29 03:16:05;;;;;;;9.25;1.38;;;;;;;11.53;100.00;99319.50;4993174;28;20034;-66
2021/12/29 03:18:30;;;;;;;6.45;1.25;;;;;;;11.51;100.00;99332.03;4992133;28;20437;-66
2021/12/29 03:20:56;;;;;;;3.97;1.60;;;;;;;11.45;100.00;99325.19;4995923;28;20031;-66
2021/12/29 03:23:22;;;;;;;2.70;0.90;;;;;;;11.41;100.00;99322.75;4992444;28;20023;-66
2021/12/29 03:25:48;;;;;;;2.78;0.98;;;;;;;11.41;100.00;99328.06;4992749;28;20446;-66
2021/12/29 03:28:18;;;;;;;6.70;1.20;;;;;;;11.44;100.00;99326.13;4993037;28;20093;-66
2021/12/29 03:30:48;;;;;;;9.07;1.25;;;;;;;11.46;100.00;99323.41;5001294;28;20042;-65
2021/12/29 03:33:13;;;;;;;7.20;1.48;;;;;;;11.44;100.00;99327.91;4993335;28;20038;-65
2021/12/29 03:35:42;;;;;;;5.43;1.15;;;;;;;11.47;100.00;99323.31;5003892;28;20395;-65
2021/12/29 03:38:11;;;;;;;6.28;1.75;;;;;;;11.48;100.00;99326.84;4992373;28;20034;-65
2021/12/29 03:40:37;;;;;;;5.63;0.98;;;;;;;11.41;100.00;99314.75;4993049;28;20034;-65
2021/12/29 03:43:05;;;;;;;4.22;0.90;;;;;;;11.46;100.00;99326.06;4983686;28;20026;-65
2021/12/29 03:45:30;;;;;;;4.82;1.15;;;;;;;11.39;100.00;99319.28;5010134;28;20066;-65
2021/12/29 03:47:56;;;;;;;4.45;1.10;;;;;;;11.40;100.00;99326.34;5005608;28;20022;-65
2021/12/29 03:50:21;;;;;;;7.65;1.90;;;;;;;11.43;100.00;99329.72;4992526;28;20026;-65
2021/12/29 03:52:47;;;;;;;5.43;1.15;;;;;;;11.42;100.00;99337.78;4994446;28;20381;-66
2021/12/29 03:55:12;;;;;;;7.28;1.30;;;;;;;11.45;100.00;99337.66;4992325;28;20034;-66
2021/12/29 03:57:39;;;;;;;2.65;1.00;;;;;;;11.44;100.00;99333.25;4991632;28;20021;-66
2021/12/29 04:00:09;;;;;;;3.00;1.17;;;;;;;11.41;100.00;99334.28;5001004;28;20072;-66
2021/12/29 04:02:35;;;;;;;7.43;1.58;;;;;;;11.43;100.00;99334.19;4992821;28;20034;-66
2021/12/29 04:05:01;;;;;;;7.32;1.42;;;;;;;11.42;100.00;99335.09;4997424;28;20048;-66
2021/12/29 04:07:27;;;;;;;3.80;1.05;;;;;;;11.38;100.00;99322.91;4996623;28;20053;-66
2021/12/29 04:09:54;;;;;;;3.45;1.17;;;;;;;11.44;100.00;99351.88;4992069;28;20054;-66
2021/12/29 04:12:19;;;;;;;3.33;0.98;;;;;;;11.43;100.00;99343.03;4998733;28;20403;-66
2021/12/29 04:14:45;;;;;;;6.90;1.02;;;;;;;11.44;100.00;99347.44;5002934;28;20031;-66
2021/12/29 04:17:12;;;;;;;8.60;1.27;;;;;;;11.45;100.00;99351.81;4991462;28;20164;-66
2021/12/29 04:22:23;;;;;;;6.03;1.38;;;;;;;11.50;100.00;99338.28;4992246;28;20124;-66
2021/12/29 04:24:49;;;;;;;6.88;1.30;;;;;;;11.50;100.00;99339.16;4990526;28;20475;-66
2021/12/29 04:27:15;;;;;;;9.45;1.83;;;;;;;11.54;100.00;99339.88;4992471;28;20033;-66
2021/12/29 04:29:40;;;;;;;5.88;0.88;;;;;;;11.50;100.00;99344.47;4999813;28;20037;-66
2021/12/29 04:32:06;;;;;;;6.40;1.20;;;;;;;11.48;100.00;99346.34;4993498;28;20018;-66
2021/12/29 04:34:32;;;;;;;14.27;1.85;;;;;;;11.54;100.00;99350.53;4992154;28;20093;-66
2021/12/29 04:36:57;;;;;;;5.57;1.10;;;;;;;11.56;100.00;99357.53;4992809;28;20300;-66
2021/12/29 04:39:22;;;;;;;3.40;1.17;;;;;;;11.52;100.00;99353.25;4990833;28;20026;-66
2021/12/29 04:41:48;;;;;;;3.55;1.05;;;;;;;11.56;100.00;99353.97;4991059;28;20059;-66
2021/12/29 04:44:13;;;;;;;6.88;1.48;;;;;;;11.58;100.00;99360.13;4995261;28;20033;-66
2021/12/29 04:46:44;;;;;;;3.90;1.15;;;;;;;11.54;100.00;99358.50;4996405;28;20048;-66
2021/12/29 04:49:12;;;;;;;8.88;1.88;;;;;;;11.56;100.00;99380.63;4991655;28;20262;-66
2021/12/29 04:51:44;;;;;;;2.70;0.90;;;;;;;11.59;100.00;99381.34;5002678;28;20126;-66
2021/12/29 04:54:10;;;;;;;8.77;1.52;;;;;;;11.61;100.00;99383.94;4991412;28;20134;-66
2021/12/29 04:56:35;;;;;;;2.90;0.70;;;;;;;11.50;100.00;99391.53;4994189;28;20111;-66
2021/12/29 04:59:02;;;;;;;2.05;1.02;;;;;;;11.46;100.00;99392.63;4989284;28;20608;-66
2021/12/29 05:01:28;;;;;;;3.40;0.93;;;;;;;11.49;100.00;99400.47;4991369;28;20026;-66
2021/12/29 05:03:54;;;;;;;2.45;0.80;;;;;;;11.51;100.00;99395.94;4999656;28;20474;-66
2021/12/29 05:09:03;;;;;;;4.28;1.17;;;;;;;11.50;100.00;99407.50;4993908;28;20041;-66
2021/12/29 05:11:29;;;;;;;3.15;0.77;;;;;;;11.49;100.00;99405.81;4991356;28;20402;-66
2021/12/29 05:13:55;;;;;;;4.82;0.82;;;;;;;11.45;100.00;99406.88;4990972;28;20026;-66
2021/12/29 05:16:22;;;;;;;4.40;1.08;;;;;;;11.42;100.00;99396.34;4991299;28;20084;-66
2021/12/29 05:18:48;;;;;;;3.00;1.00;;;;;;;11.40;100.00;99404.41;5000897;28;20088;-66
2021/12/29 05:21:13;;;;;;;1.70;1.13;;;;;;;11.42;100.00;99410.53;5009501;28;20437;-66
2021/12/29 05:23:39;;;;;;;7.35;1.02;;;;;;;11.40;100.00;99417.72;5010817;28;20032;-66
2021/12/29 05:26:04;;;;;;;6.05;1.48;;;;;;;11.42;100.00;99420.31;5008904;28;20101;-66
2021/12/29 05:28:30;;;;;;;6.47;0.85;;;;;;;11.39;100.00;99431.13;4990415;28;20450;-66
2021/12/29 05:30:55;;;;;;;2.70;1.50;;;;;;;11.28;100.00;99430.75;4990545;28;20022;-66
2021/12/29 05:33:21;;;;;;;9.35;1.70;;;;;;;11.27;100.00;99431.66;4991290;28;20026;-66
2021/12/29 05:35:47;;;;;;;5.00;1.13;;;;;;;11.26;100.00;99433.47;4993200;28;20030;-66
2021/12/29 05:38:12;;;;;;;9.38;1.67;;;;;;;11.28;100.00;99449.38;5000351;28;20028;-66
2021/12/29 05:40:38;;;;;;;5.43;1.30;;;;;;;11.24;100.00;99437.13;4992646;28;20030;-66
2021/12/29 05:43:04;;;;;;;3.72;1.33;;;;;;;11.22;100.00;99439.00;4992549;28;20048;-66
2021/12/29 05:45:29;;;;;;;3.88;1.45;;;;;;;11.22;100.00;99437.19;4991284;28;20109;-66
2021/12/29 05:47:56;;;;;;;4.97;1.13;;;;;;;11.21;100.00;99437.25;4989701;28;20507;-66
2021/12/29 05:50:25;;;;;;;5.72;1.23;;;;;;;11.22;100.00;99431.88;4993116;28;20030;-66
2021/12/29 05:52:51;;;;;;;6.25;1.83;;;;;;;11.20;100.00;99440.88;4972441;28;20034;-66
2021/12/29 05:55:16;;;;;;;5.07;1.20;;;;;;;11.17;100.00;99430.38;4992416;28;20145;-66
2021/12/29 05:57:43;;;;;;;2.28;1.08;;;;;;;11.13;100.00;99426.09;4988083;28;20021;-66
2021/12/29 06:00:11;;;;;;;7.30;2.78;;;;;;;11.02;100.00;99405.25;5008176;28;20025;-66
2021/12/29 06:02:37;;;;;;;11.52;1.85;;;;;;;11.07;100.00;99419.22;4993283;28;20069;-66
2021/12/29 06:05:04;;;;;;;9.70;1.73;;;;;;;11.09;100.00;99427.16;4989940;28;20151;-66
2021/12/29 06:07:29;;;;;;;6.38;1.77;;;;;;;11.05;100.00;99425.56;4992237;28;20033;-66
2021/12/29 06:09:55;;;;;;;5.28;1.10;;;;;;;11.00;100.00;99411.59;4989921;28;20034;-66
2021/12/29 06:12:20;;;;;;;3.92;1.15;;;;;;;11.03;100.00;99414.13;4990196;28;20051;-66
2021/12/29 06:14:47;;;;;;;6.15;1.40;;;;;;;11.01;100.00;99413.31;4992409;28;20486;-66
2021/12/29 06:17:14;;;;;;;11.00;2.08;;;;;;;10.98;100.00;99418.78;5001063;28;20037;-66
2021/12/29 06:19:40;;;;;;;5.30;1.55;;;;;;;11.01;100.00;99413.31;4989367;28;20034;-66
2021/12/29 06:22:09;;;;;;;5.22;1.85;;;;;;;11.02;100.00;99428.38;4991861;28;20121;-66
2021/12/29 06:24:35;;;;;;;6.72;1.60;;;;;;;11.03;100.00;99438.06;4990181;28;20042;-66
2021/12/29 06:27:00;;;;;;;4.68;1.90;;;;;;;10.98;100.00;99445.38;4988697;28;20064;-66
2021/12/29 06:29:26;;;;;;;6.95;1.65;;;;;;;10.96;100.00;99449.91;4990776;28;20028;-66
2021/12/29 06:31:51;;;;;;;10.85;3.15;;;;;;;10.95;100.00;99456.16;4989587;28;20037;-66
2021/12/29 06:34:17;;;;;;;5.18;1.67;;;;;;;10.98;100.00;99458.69;4991976;28;20026;-66
2021/12/29 06:36:43;;;;;;;3.80;1.20;;;;;;;10.98;100.00;99456.91;4988991;28;20479;-66
2021/12/29 06:39:09;;;;;;;4.63;1.50;;;;;;;10.95;100.00;99461.50;4971716;28;20048;-66
2021/12/29 06:41:34;;;;;;;3.38;0.85;;;;;;;10.97;100.00;99470.28;4992906;28;20578;-66
2021/12/29 06:44:00;;;;;;;6.47;2.03;;;;;;;10.95;100.00;99466.81;4989095;28;20026;-66
2021/12/29 06:46:25;;;;;;;9.73;1.15;;;;;;;11.05;100.00;99478.78;4989495;28;20037;-66
2021/12/29 06:48:50;;;;;;;8.00;1.17;;;;;;;11.08;100.00;99483.97;4990930;28;21030;-66
2021/12/29 06:51:16;;;;;;;4.28;1.02;;;;;;;11.08;100.00;99483.97;4999305;28;20021;-66
2021/12/29 06:53:41;;;;;;;6.30;1.40;;;;;;;11.03;100.00;99480.66;5008924;28;20371;-66
2021/12/29 06:56:07;;;;;;;4.28;1.02;;;;;;;11.03;100.00;99480.66;5001131;28;20034;-66
2021/12/29 06:58:33;;;;;;;4.72;1.20;;;;;;;11.04;100.00;99480.59;4988939;28;20025;-66
2021/12/29 07:00:59;;;;;;;3.08;1.25;;;;;;;11.04;100.00;99477.03;4989678;28;20027;-66
2021/12/29 07:03:26;;;;;;;76.57;8.82;;;;;;;11.06;100.00;99484.06;5001772;28;20040;-66
2021/12/29 07:05:53;;;;;;;3.63;1.17;;;;;;;11.08;100.00;99479.53;4988912;28;20054;-66
2021/12/29 07:08:18;;;;;;;8.18;1.10;;;;;;;11.10;100.00;99490.13;4994768;28;20073;-66
2021/12/29 07:10:45;;;;;;;8.68;1.25;;;;;;;11.06;100.00;99483.19;4996666;28;20065;-66
2021/12/29 07:13:11;;;;;;;8.27;1.60;;;;;;;10.98;100.00;99495.94;4987965;28;20023;-66
2021/12/29 07:15:36;;;;;;;2.63;0.80;;;;;;;11.08;100.00;99490.19;4998491;28;20069;-66
2021/12/29 07:18:03;;;;;;;2.63;0.88;;;;;;;10.96;100.00;99493.34;4988607;28;20363;-66
2021/12/29 07:20:28;;;;;;;4.47;1.17;;;;;;;10.86;100.00;99493.78;4989550;28;20034;-66
2021/12/29 07:22:54;;;;;;;6.93;1.60;;;;;;;10.85;100.00;99498.28;4989199;28;20026;-66
2021/12/29 07:25:19;;;;;;;3.00;0.95;;;;;;;10.83;100.00;99494.81;4991938;28;20030;-66
2021/12/29 07:27:45;;;;;;;3.05;1.02;;;;;;;10.83;100.00;99496.59;4988053;28;20026;-66
2021/12/29 07:30:11;;;;;;;13.15;4.18;;;;;;;10.83;100.00;99507.22;4991782;28;20034;-66
2021/12/29 07:32:37;;;;;;;11.55;3.63;;;;;;;10.83;100.00;99513.44;4992113;28;20081;-66
2021/12/29 07:35:03;;;;;;;7.82;2.55;;;;;;;10.84;100.00;99507.16;4971482;28;20506;-66
2021/12/29 07:37:28;;;;;;;9.73;3.92;;;;;;;10.83;100.00;99509.88;4990866;28;20041;-66
2021/12/29 07:39:54;;;;;;;89.18;41.65;;;;;;;10.81;100.00;99509.13;4989021;28;20034;-66
2021/12/29 07:42:19;;;;;;;60.15;30.42;;;;;;;10.71;100.00;99502.44;4989011;28;20387;-66
2021/12/29 07:44:47;;;;;;;77.13;37.42;;;;;;;10.78;100.00;99512.75;4991064;28;20481;-66
2021/12/29 07:47:13;;;;;;;56.03;30.35;;;;;;;10.78;100.00;99518.06;4997015;28;20033;-66
2021/12/29 07:49:39;;;;;;;25.92;15.10;;;;;;;10.79;100.00;99524.25;4991736;28;20395;-66
2021/12/29 07:52:05;;;;;;;31.77;17.35;;;;;;;10.80;100.00;99531.31;4989423;28;20036;-66
2021/12/29 07:54:31;;;;;;;13.93;7.32;;;;;;;10.90;100.00;99537.97;4992610;28;20101;-66
2021/12/29 07:56:56;;;;;;;10.05;3.45;;;;;;;10.94;100.00;99534.28;4991856;28;20026;-66
2021/12/29 07:59:21;;;;;;;6.47;2.42;;;;;;;10.94;100.00;99545.75;5003104;28;20486;-66
2021/12/29 08:01:48;;;;;;;9.05;3.58;;;;;;;11.02;100.00;99545.47;4994011;28;20033;-66
2021/12/29 08:04:15;;;;;;;12.20;4.32;;;;;;;11.03;100.00;99542.72;4992584;28;20041;-66
2021/12/29 08:06:40;;;;;;;8.18;3.53;;;;;;;10.98;100.00;99525.22;4992556;28;20109;-66
2021/12/29 08:09:12;;;;;;;10.15;3.22;;;;;;;11.05;100.00;99550.66;4994640;28;20116;-66
2021/12/29 08:11:39;;;;;;;7.18;3.60;;;;;;;10.71;100.00;99505.09;4999535;28;20033;-66
2021/12/29 08:14:05;;;;;;;10.20;3.60;;;;;;;10.87;100.00;99544.31;5007966;28;20033;-66
2021/12/29 08:16:30;;;;;;;10.05;3.45;;;;;;;10.96;100.00;99553.69;4995409;28;20023;-66
2021/12/29 08:18:56;;;;;;;12.98;4.65;;;;;;;10.99;100.00;99543.78;4997425;28;20026;-66
2021/12/29 08:21:21;;;;;;;12.73;4.15;;;;;;;11.02;100.00;99548.13;5011544;28;20033;-66
2021/12/29 08:23:47;;;;;;;15.90;4.55;;;;;;;10.99;100.00;99532.28;5011777;28;20386;-66
2021/12/29 08:26:12;;;;;;;5.28;2.92;;;;;;;11.01;100.00;99535.72;4999432;28;20034;-66
2021/12/29 08:28:38;;;;;;;9.18;3.03;;;;;;;10.99;100.00;99548.25;4991742;28;20037;-66
2021/12/29 08:31:04;;;;;;;6.03;3.47;;;;;;;10.97;100.00;99547.44;4996451;28;20044;-66
2021/12/29 08:33:30;;;;;;;6.72;2.85;;;;;;;10.94;100.00;99529.78;5007776;28;20397;-66
2021/12/29 08:35:56;;;;;;;6.15;2.67;;;;;;;11.05;100.00;99535.56;5011137;28;20025;-66
2021/12/29 08:38:21;;;;;;;6.38;2.75;;;;;;;11.06;100.00;99523.09;5011081;28;20766;-66
2021/12/29 08:40:47;;;;;;;6.22;3.10;;;;;;;10.88;100.00;99523.88;5009952;28;20033;-66
2021/12/29 08:43:16;;;;;;;5.57;2.63;;;;;;;11.14;100.00;99523.63;4994691;28;20026;-66
2021/12/29 08:45:42;;;;;;;7.68;2.75;;;;;;;11.25;100.00;99518.72;4991656;28;20033;-66
2021/12/29 08:48:09;;;;;;;6.47;2.65;;;;;;;11.35;100.00;99517.41;4993420;28;20026;-66
2021/12/29 08:50:34;;;;;;;6.80;2.25;;;;;;;11.39;100.00;99509.22;4998298;28;20395;-66
2021/12/29 08:53:03;;;;;;;5.45;2.50;;;;;;;11.45;100.00;99516.06;4990133;28;20026;-66
2021/12/29 08:55:30;;;;;;;7.15;2.97;;;;;;;11.42;100.00;99521.50;5005447;28;20044;-66
2021/12/29 08:57:55;;;;;;;9.65;3.35;;;;;;;11.45;100.00;99527.56;4990510;28;20054;-66
2021/12/29 09:00:21;;;;;;;10.00;2.90;;;;;;;11.36;100.00;99527.13;4994320;28;20589;-66
2021/12/29 09:02:47;;;;;;;8.00;3.28;;;;;;;11.37;100.00;99535.03;4989650;28;20034;-66
2021/12/29 09:05:16;;;;;;;7.55;2.83;;;;;;;11.41;100.00;99536.66;4990035;28;20050;-66
2021/12/29 09:07:41;;;;;;;9.45;2.30;;;;;;;11.44;100.00;99540.97;4991186;28;20471;-66
2021/12/29 09:10:08;;;;;;;5.70;2.80;;;;;;;11.42;100.00;99548.13;4994134;28;20081;-66
2021/12/29 09:12:33;;;;;;;6.38;2.90;;;;;;;11.51;100.00;99542.44;4993329;28;20217;-66
2021/12/29 09:14:59;;;;;;;5.55;2.20;;;;;;;11.56;100.00;99548.41;4990420;28;20033;-66
2021/12/29 09:17:25;;;;;;;4.70;2.53;;;;;;;11.54;100.00;99552.94;4993150;28;20044;-66
2021/12/29 09:19:50;;;;;;;9.00;2.65;;;;;;;11.56;100.00;99540.44;4990229;28;20023;-66
2021/12/29 09:22:16;;;;;;;3.95;2.60;;;;;;;11.60;100.00;99550.00;4992974;28;20030;-66
2021/12/29 09:24:43;;;;;;;6.72;2.90;;;;;;;11.61;100.00;99551.75;4990253;28;20045;-66
2021/12/29 09:27:09;;;;;;;7.63;2.20;;;;;;;11.63;100.00;99547.22;4992769;28;20026;-66
2021/12/29 09:29:35;;;;;;;5.75;1.92;;;;;;;11.70;100.00;99559.34;4990769;28;20037;-66
2021/12/29 09:32:03;;;;;;;4.25;1.55;;;;;;;11.70;100.00;99552.22;4990381;28;20022;-66
2021/12/29 09:34:29;;;;;;;2.00;1.15;;;;;;;11.69;100.00;99549.63;5001707;28;20041;-66
2021/12/29 09:36:55;;;;;;;2.83;1.23;;;;;;;11.73;100.00;99561.88;4989808;28;20482;-66
2021/12/29 09:39:20;;;;;;;3.05;1.50;;;;;;;11.78;100.00;99558.09;4989964;28;20109;-66
2021/12/29 09:41:46;;;;;;;4.40;1.60;;;;;;;11.82;100.00;99565.03;4991025;28;20624;-66
2021/12/29 09:44:12;;;;;;;4.15;1.48;;;;;;;11.80;100.00;99572.22;4995694;28;20034;-66
2021/12/29 09:46:38;;;;;;;3.70;1.20;;;;;;;11.82;100.00;99572.13;5009078;28;20052;-66
2021/12/29 09:49:04;;;;;;;3.40;1.10;;;;;;;11.85;100.00;99578.19;5008761;28;20034;-66
2021/12/29 09:51:30;;;;;;;4.35;1.60;;;;;;;11.83;100.00;99573.84;4999147;28;20080;-66
2021/12/29 09:53:55;;;;;;;6.25;1.35;;;;;;;11.85;100.00;99577.31;4990948;28;20018;-66
2021/12/29 09:56:21;;;;;;;7.53;1.65;;;;;;;11.84;100.00;99556.97;5010177;28;20375;-66
2021/12/29 09:58:47;;;;;;;4.88;1.58;;;;;;;11.90;100.00;99562.88;5006265;28;20026;-66
2021/12/29 10:01:12;;;;;;;5.72;1.80;;;;;;;11.95;100.00;99575.97;5009241;28;20038;-66
2021/12/29 10:03:39;;;;;;;4.25;1.42;;;;;;;11.79;100.00;99549.13;5009589;28;20099;-66
2021/12/29 10:06:08;;;;;;;3.65;1.77;;;;;;;11.73;100.00;99577.84;5010504;28;20044;-66
2021/12/29 10:08:36;;;;;;;6.20;1.98;;;;;;;11.74;100.00;99582.28;5006234;28;20485;-66
2021/12/29 10:11:18;;;;;;;8.85;2.10;;;;;;;11.93;100.00;99571.66;4993648;28;20132;-66
2021/12/29 10:13:47;;;;;;;6.55;2.33;;;;;;;12.01;100.00;99570.34;4991804;28;20029;-66
2021/12/29 10:16:33;;;;;;;3.95;1.88;;;;;;;12.01;100.00;99570.34;4994751;28;20072;-66
2021/12/29 10:19:01;;;;;;;8.27;1.73;;;;;;;12.01;100.00;99565.03;5003407;28;20064;-66
2021/12/29 10:21:28;;;;;;;4.57;2.28;;;;;;;11.98;100.00;99562.50;4992686;28;20101;-66
2021/12/29 10:23:56;;;;;;;7.05;1.85;;;;;;;11.98;100.00;99559.84;4990044;28;20022;-66
2021/12/29 10:26:30;;;;;;;6.32;1.70;;;;;;;11.97;100.00;99557.25;4990348;28;20489;-66
2021/12/29 10:29:00;;;;;;;5.07;1.70;;;;;;;11.97;100.00;99559.91;4990480;28;20026;-66
2021/12/29 10:31:32;;;;;;;9.45;1.80;;;;;;;11.99;100.00;99558.06;4976023;28;20027;-66
2021/12/29 10:34:00;;;;;;;6.03;1.90;;;;;;;11.99;100.00;99545.59;4988392;28;20324;-66
2021/12/29 10:36:29;;;;;;;5.60;2.08;;;;;;;12.00;100.00;99547.31;4997600;28;20037;-66
2021/12/29 10:38:58;;;;;;;4.60;2.00;;;;;;;11.96;100.00;99540.38;4986182;28;20034;-66
2021/12/29 10:41:25;;;;;;;7.30;2.78;;;;;;;12.06;100.00;99551.50;4991787;28;20030;-66
2021/12/29 10:43:57;;;;;;;7.78;2.13;;;;;;;12.03;100.00;99547.19;5006410;28;20022;-66
2021/12/29 10:46:24;;;;;;;9.10;2.22;;;;;;;12.05;100.00;99561.31;4990606;28;20026;-66
2021/12/29 10:48:51;;;;;;;2.88;1.85;;;;;;;12.08;100.00;99546.94;4988215;28;20023;-66
2021/12/29 10:51:19;;;;;;;6.63;2.15;;;;;;;12.06;100.00;99541.69;4998572;28;20477;-66
2021/12/29 10:53:44;;;;;;;10.38;2.78;;;;;;;11.99;100.00;99528.72;4988928;28;20038;-66
2021/12/29 10:56:24;;;;;;;5.40;2.53;;;;;;;12.13;100.00;99536.94;4994889;28;20083;-66
2021/12/29 10:58:53;;;;;;;7.50;2.58;;;;;;;12.16;100.00;99531.50;4991251;28;20030;-66
2021/12/29 11:01:19;;;;;;;7.22;2.15;;;;;;;12.07;100.00;99530.13;4989124;28;20030;-66
2021/12/29 11:03:49;;;;;;;9.40;2.10;;;;;;;12.12;100.00;99522.78;4991747;28;20216;-66
2021/12/29 11:06:23;;;;;;;5.97;2.40;;;;;;;12.35;100.00;99521.69;4988635;28;20069;-66
2021/12/29 11:08:55;;;;;;;9.43;2.80;;;;;;;12.25;100.00;99523.94;4991649;28;20052;-66
2021/12/29 11:11:39;;;;;;;7.43;2.90;;;;;;;12.23;100.00;99517.78;4989749;28;20117;-66
2021/12/29 11:14:10;;;;;;;11.85;2.83;;;;;;;12.28;100.00;99525.56;4991080;28;20289;-66
2021/12/29 11:16:36;;;;;;;4.88;1.92;;;;;;;12.28;100.00;99520.22;4989170;28;20034;-66
2021/12/29 11:19:02;;;;;;;8.23;2.50;;;;;;;12.27;100.00;99526.50;4987878;28;20022;-66
2021/12/29 11:21:31;;;;;;;8.18;3.55;;;;;;;12.32;100.00;99528.00;4991779;28;20041;-66
2021/12/29 11:24:09;;;;;;;14.00;2.47;;;;;;;12.29;100.00;99535.31;4988699;28;20415;-66
2021/12/29 11:26:35;;;;;;;7.63;2.35;;;;;;;12.29;100.00;99538.81;4997918;28;20438;-66
2021/12/29 11:29:04;;;;;;;6.35;2.40;;;;;;;12.26;100.00;99538.97;4993563;28;20046;-66